Scroll down
FLIGHT INFORMATION
PMDG Flight Operations

PFO526

Diverted

BIRK
 KDTW
[Original Destination: KDTW ]
DATE: 2020-11-01
GATE:  -
GATE DEPARTURE: 17:02
TAKEOFF: 17:15
DATE: 2020-11-01
GATE:  -
LANDING: 23:49
GATE ARRIVAL: 00:03
FLIGHT DATA
Crew: 
Speed: 
465 kts
Altitude: 
40,000 ft
Stage Length: 
2,561.9 nm
Block Time: 
7 hrs
Flight Time: 
6.6 hrs
Fuel Used: 
33,204 lb
Cleared Route: BIRK KFV 6430N 6340N 6150N SAVRY IRBIM MT YVO DUTEL OBK KPWK
TRACK DATA
50,000 ft 1,000 kts
AIRCRAFT INFO AND CUMULATIVE STATS
Aircraft Type: 
B738BBJ2SSW
Registration: 
SELCAL: 
CHKP
MSN/LN: 
0 / 7
Total Flights: 
9
Total Block Time: 
51.1 hrs
Total Flight Time: 
49.6 hrs
Total Fuel Time: 
264,879 lb
DATALINK LOG | Newest first | Current as of: 2020-12-03 00:39:13
LABEL SEQUENCE CONTENT Dn/Up
QD265700:03 9.6▼ Dn
QC130923:49▼ Dn
2U2140KDTW 011953Z 28021G37KT 10SM SCT050 BKN065 03/M07 A2997 RMK AO2 PK WND 26037/1944 SNE08 SLP151 P0000 T00331072▲ Up
2S2140KDTW▼ Dn
GA1729ADVANCED GATE ASSIGNMENTS NOT YET AVAILABLE AT THIS AIRPORT▲ Up
GR1718KPWK 23:49 DIPL/VIP YES▼ Dn
2U5854KPWK 011952Z 31019G28KT 10SM SCT060 05/M09 A3023 RMK AO2 PK WND 32034/1929 SLP241 T00501094▲ Up
2S5854KPWK▼ Dn
2U0622KMSP 011853Z 31015G22KT 10SM FEW220 FEW250 02/M12 A3042 RMK AO2 SLP312 T00171117 $▲ Up
2S0622KMSP▼ Dn
2U5310DATA SERVICE NOT RESPONDING▲ Up
2S5310KMSP▼ Dn
2U4705KDTW 011753Z 28022G29KT 10SM FEW040 BKN050 BKN070 04/M06 A2990 RMK AO2 PK WND 30039/1712 RAB06E11SNB08E25 SLP130 P0000 60000 T00441061 10083 20022 51039▲ Up
2S4704KDTW▼ Dn
5U4402DATA SERVICE NOT RESPONDING▲ Up
5S4401KPWK▼ Dn
2U4159DATA SERVICE NOT RESPONDING▲ Up
2S4159KDWT▼ Dn
2U3840KPWK 011752Z 29020G34KT 10SM OVC055 04/M09 A3019 RMK AO2 PK WND 33040/1726 SLP226 T00391094 10039 20022 51030▲ Up
2S3839KPWK▼ Dn
UM201562CLEARED TO FL 390▲ Up
DM61552REQUEST FL 390 DUE TO A/C PERF▼ Dn
5U1148DATA SERVICE NOT RESPONDING▲ Up
5S1148KPWK▼ Dn
QB250317:15▼ Dn
QA041517:02 42.9▼ Dn
A34558CLEARED TO KPWK VIA KFV1 KFV 64N030W 63N040W 61N050W SAVRY N796A IRBIM N802A MT J545 YVO Q923 DUTEL OBK. SQUAWK 2773.▲ Up
B34558BIRK KPWK PFO526 PFO N ▼ Dn
A73548CLEARANCE AVAIL WITHIN 0:25 OF EDT▲ Up
B33548BIRK KPWK PFO526 PFO N ▼ Dn
A73346CLEARANCE AVAIL WITHIN 0:25 OF EDT▲ Up
B33346BIRK KPWK PFO526 PFO N ▼ Dn
2U3043BIRK 011600Z 33012KT 9999 FEW045 BKN075 04/01 Q0972▲ Up
2S3043BIRK▼ Dn
Q02942[LINK ACK]▲ Up
Q02942[LINK TEST]▼ Dn


AIRCRAFT HISTORY
FLIGHT DATE FLIGHT NO. ORIGIN DESTINATION CLEARED ROUTE BLOCK TIME FLIGHT TIME FUEL USED PILOT
2020-11-30PFO110KPHX KMZJ KPHX STRRM KMZJ0.4 hrs0.3 hrs2,278 lbAlex K.
2020-11-25PFO9999KRIV KPHX KNTU FKN GUMBE UFFIN MEGXE HMV FARLI DREFT OLSIE WESON ZORAL QBALL WEVRA SZL JHAWK JUXON VASCO ZITIK SLN HETAB GLIDE RANSO ZAMPO COFFE NARNE WIZGE KINGO BLOOM JUKEX RADIO GOSIP ACHES BLOKE ALS MRKKO GEMKY BBRTA RESER PELDY RSK FULLY WUDIR ROUGH YIKLO TBC BISOP MEMPE TNP TRM KRIV1 hrs0.8 hrs5,981 lbAlex K.
2020-11-24PFO110KNTU KRIV KNTU FKN GUMBE UFFIN MEGXE HMV FARLI DREFT OLSIE WESON ZORAL QBALL WEVRA SZL JHAWK JUXON VASCO ZITIK SLN HETAB GLIDE RANSO ZAMPO COFFE NARNE WIZGE KINGO BLOOM JUKEX RADIO GOSIP ACHES BLOKE ALS MRKKO GEMKY BBRTA RESER PELDY RSK FULLY WUDIR ROUGH YIKLO TBC BISOP MEMPE TNP TRM KRIV5.3 hrs5.1 hrs33,498 lbAlex K.
2020-11-23PFO110LTAR KNTU LTAR OLPOT ENFOR TIMOP BENTA GURBU BUK DEREL AKCAK MAKOL NESAR RUTAR NUPVU ELRUR DEGET BEGLA DEXIT MAPOX SPY BERGI MIMVA EMLON LEGRO NALAX LIBSO ODNEK MITSO RIMTO HALIF GETNO REMSI MOLAK ETARI 5620N 5630N 5540N 5250N TUDEP ALLEX BOYCC MONTT HTO HOFFI SHLEP SARDI DUNEE SHERL PLUME MANTA DRIFT BRIGS AVALO SIE RADDS SWL DUNFE KALDA CCV KNTU13.7 hrs13.5 hrs65,943 lbAlex K.
2020-11-18PFO100KDTW LTAR KDTW PISTN AXOBU DERLO DUVEP CFVXC HOZIR TUPER KJOHN ALLEX NICSO 4850N 5140N 5330N 5320N TOBOR RILED SLANY STU LUFTU DIKAS DEZZU GAVGO KENET CPT NORRY LINDY GOXUL BIG DIKVU LAVRI EMKAD UMTUM DVR KONAN KOK SPI PELIX MATUG BOMBI TENLO DEXIT TEKNO PEXAL ASNEL OSTAL MAXOV USOVO ARTAT ERMUP ROKVA NAPIP UNVUS ASMOB RELTU APTOX TEPKI PIPUR ORMAN ERGUN TIMOP ENFOR OLPOT LTAR11.1 hrs10.9 hrs59,950 lbAlex K.
2020-11-01PFO526BIRK KDTW BIRK KFV 6430N 6340N 6150N SAVRY IRBIM MT YVO DUTEL OBK KPWK7 hrs6.6 hrs33,204 lbBig Swede
2020-10-31PFO2115LSZS BIRK LSZS RONAG MANEG RIPUS DITON HOC NATLI LUL IXILU RESPO RLP CTL DIDOR NURMO DIPER VESAN RATUK SOVAT SANDY DET BPK POTON BEDFO EBOTO PIPIN LESTA EMBOR XAPOS BOLBI ULSAX POL NELSA RIBEL ERGAB SHAPP ABEVI INPIP UTOGU INREV ESKDO IPDOR TLA ERSON NEVIS STN BILLY BARKU RATSU VM BIRK4 hrs3.8 hrs18,634 lbJames W.
2020-10-29PFO1521HECA LSZS HECA CVO MENKU NOZ OTIKO GESAD ANTAR GUDIS KPC TIPAS BINKI MADEX AKORO YNN VJOSA PAPIZ GONOT CRAYE GISAM RILIM SAL LABIN RESIA LSZS4 hrs3.8 hrs19,144 lbJames W.
2020-10-16PFO1016HKJK HECA HKJK AVONO HECA4.9 hrs4.7 hrs26,247 lbAaron Buchanan